Air Navigation Services of Czech Republic  
Last data update:  25.09.2016 03:35:16 UTC Česká verze
   METEO Page displayed:  25.09.2016 03:36:41 UTC  
help
METAR EDDB 250320Z 09003KT CAVOK 09/07 Q1023 NOSIG=
METAR EDDC 250320Z 15003KT 8000 BCFG NSC 09/09 Q1023=
METAR EDDE 250320Z 20009KT CAVOK 11/08 Q1022=
METAR EDDF 250320Z 06003KT 320V100 CAVOK 11/08 Q1020 NOSIG=
METAR EDDM 250320Z 11001KT 3000 1200NE R08L/0550N R08R/0550VP2000U BCFG NSC 04/04 Q1022 BECMG 0700 FG=
METAR EDDN 250320Z VRB01KT 9999 MIFG NSC 07/06 Q1022=
METAR EDDP 250320Z 16008KT CAVOK 11/10 Q1022 NOSIG=
METAR EDDT 250320Z 07002KT CAVOK 11/08 Q1023 NOSIG=
METAR EDQM 241550Z 19001KT CAVOK 19/07 Q1025=
METAR EPBY 250330Z 00000KT CAVOK 04/03 Q1025 =
METAR EPGD 250330Z 29003KT 2500 0450SW BCFG BR NSC 07/07 Q1025 =
METAR EPKK 250330Z 06002KT 0350 R25/1900N PRFG BKN001 06/05 Q1024 =
METAR EPKT 250330Z VRB01KT 0150 R27/0900U FG FEW000 02/02 Q1024 =
METAR EPLL 250330Z 08001KT 5000 MIFG BR NSC 04/03 Q1025 =
METAR EPPO 250330Z 09003KT CAVOK 07/06 Q1025 =
METAR EPRZ 250330Z 24002KT 0100 R27/0375N FG VV000 07/07 Q1024 =
METAR EPWA 250330Z 31003KT 9999 MIFG NSC 06/05 Q1025 NOSIG=
METAR EPWR 250330Z 14002KT 0800 R29/0500N FG NSC 06/05 Q1024 =
METAR LHBP 250330Z VRB03KT CAVOK 08/08 Q1024 NOSIG=
METAR LHSM 250245Z 27002KT 3000 VCFG SCT200 07/07 Q1024=
METAR LKCV 250300Z 00000KT CAVOK 07/06 Q1024 NOSIG=
METAR LKKB 250300Z 00000KT CAVOK 08/07 Q1024 =
METAR LKKU NIL
METAR LKKV 250300Z 12002KT 9999 MIFG BCFG NSC 05/05 Q1023 RMK REG QNH 1019=
METAR LKLN 250300Z AUTO 00000KT 8000 NSC 06/05 Q1024=
METAR LKMT 250330Z 00000KT 0200 R22/0250N R04/0225N FG VV001 08/08 Q1024 NOSIG=
METAR LKNA 250300Z 02005KT CAVOK 11/08 Q1024=
METAR LKPD 250300Z 00000KT CAVOK 06/04 Q1024 =
METAR LKPR 250330Z 26001KT 8000 NSC 09/07 Q1023 NOSIG=
METAR LKTB 250330Z VRB02KT 7000 NSC 10/08 Q1024 NOSIG=
METAR LKVO NIL
METAR LOWI 250320Z AUTO 26002KT 9999 NCD 08/08 Q1024=
METAR LOWL 250320Z 23002KT 8000 R26/P1500D MIFG FEW270 07/07 Q1023 TEMPO 0800 BCFG=
METAR LOWS 250320Z AUTO 16006KT 9999 SCT250 08/07 Q1022=
METAR LOWW 250320Z 05002KT CAVOK 09/08 Q1023 NOSIG=
METAR LZIB 250330Z 35001KT CAVOK 09/07 Q1023=
METAR LZKZ 250330Z VRB02KT 9999 R01/1400D BCFG FEW001 08/08 Q1024=
METAR LZPP 250330Z AUTO 04004KT 9000 NCD 10/09 Q1023=
METAR LZSL 250330Z VRB01KT 0100 R36/0350N FG BKN001 07/06 Q1024=
METAR LZTT 250330Z 34001KT 4000 0500E BCFG OVC002 07/07 Q1024=
METAR LZZI 250330Z 08004KT 060V120 7000 BKN056 10/09 Q1024=